Time;durP1;ratioP1;P1;durP2;ratioP2;P2;SDS_P1;SDS_P2;PMS_P1;PMS_P2;Temp;Humidity;BMP_temperature;BMP_pressure;BME280_temperature;BME280_humidity;BME280_pressure;Samples;Min_cycle;Max_cycle;Signal;HPM_P1;HPM_P2
2022/04/25 00:02:25;;;;;;;9.73;7.10;;;9.00;99.90;;;9.83;100.00;97180.84;5090327;28;20462;-75
2022/04/25 00:04:55;;;;;;;8.43;6.40;;;8.90;99.90;;;9.84;100.00;97177.22;5094401;28;20569;-74
2022/04/25 00:07:26;;;;;;;14.27;7.53;;;9.00;99.90;;;9.86;100.00;97185.66;5091196;28;20467;-74
2022/04/25 00:09:56;;;;;;;8.87;6.50;;;9.00;99.90;;;9.85;100.00;97179.66;5086159;27;20460;-75
2022/04/25 00:12:25;;;;;;;8.67;6.47;;;9.00;99.90;;;9.81;100.00;97178.44;5087840;28;20487;-74
2022/04/25 00:14:54;;;;;;;8.83;6.77;;;9.00;99.90;;;9.80;100.00;97176.84;5089304;28;20995;-74
2022/04/25 00:17:24;;;;;;;9.80;7.30;;;8.90;99.90;;;9.80;100.00;97182.06;5091234;28;21192;-74
2022/04/25 00:19:54;;;;;;;10.03;6.70;;;8.90;99.90;;;9.83;100.00;97171.19;5091864;28;20490;-74
2022/04/25 00:22:26;;;;;;;9.27;6.40;;;9.00;99.90;;;9.86;100.00;97169.97;5085577;28;20460;-75
2022/04/25 00:24:58;;;;;;;10.80;7.37;;;9.00;99.90;;;9.86;100.00;97168.19;5087279;28;20475;-75
2022/04/25 00:27:28;;;;;;;12.70;7.10;;;9.00;99.90;;;9.79;100.00;97162.16;5090495;28;20524;-74
2022/04/25 00:29:58;;;;;;;9.37;7.10;;;9.00;99.90;;;9.79;100.00;97169.22;5086362;28;20460;-74
2022/04/25 00:32:29;;;;;;;10.63;7.37;;;9.00;99.90;;;9.82;100.00;97168.81;5093230;28;20467;-74
2022/04/25 00:34:58;;;;;;;8.80;7.07;;;8.80;99.90;;;9.90;100.00;97176.41;5091960;28;20461;-75
2022/04/25 00:37:29;;;;;;;8.00;6.67;;;8.90;99.90;;;9.90;100.00;97173.78;5091350;28;20528;-75
2022/04/25 00:39:59;;;;;;;14.70;6.87;;;9.00;99.90;;;9.92;100.00;97179.63;5086083;28;20467;-75
2022/04/25 00:42:29;;;;;;;14.20;7.20;;;9.00;99.90;;;9.87;100.00;97167.19;5089485;28;20891;-74
2022/04/25 00:45:00;;;;;;;8.87;6.97;;;9.00;99.90;;;9.83;100.00;97165.16;5084925;28;20502;-75
2022/04/25 00:47:30;;;;;;;11.20;6.70;;;9.00;99.90;;;9.83;100.00;97159.94;5089328;28;20455;-75
2022/04/25 00:50:01;;;;;;;10.50;6.80;;;8.90;99.90;;;9.85;100.00;97157.97;5087375;28;20465;-74
2022/04/25 00:52:33;;;;;;;8.87;6.53;;;9.00;99.90;;;9.84;100.00;97151.13;5090587;28;20470;-74
2022/04/25 00:55:06;;;;;;;9.60;6.53;;;8.90;99.90;;;9.82;100.00;97158.38;5088605;28;20542;-74
2022/04/25 00:57:38;;;;;;;11.10;7.47;;;9.00;99.90;;;9.77;100.00;97155.56;5093537;28;20466;-74
2022/04/25 01:00:13;;;;;;;13.43;7.33;;;8.90;99.90;;;9.67;100.00;97165.59;5088881;28;20462;-74
2022/04/25 01:02:46;;;;;;;11.70;7.30;;;8.90;99.90;;;9.66;100.00;97164.00;5089344;28;20461;-74
2022/04/25 01:05:16;;;;;;;9.37;6.63;;;8.80;99.90;;;9.56;100.00;97160.00;5086997;28;20494;-74
2022/04/25 01:07:48;;;;;;;7.67;6.23;;;8.90;99.90;;;9.59;100.00;97158.78;5089949;28;20540;-74
2022/04/25 01:10:18;;;;;;;11.13;6.93;;;8.80;99.90;;;9.57;100.00;97159.00;5088087;28;20490;-74
2022/04/25 01:12:48;;;;;;;7.47;5.20;;;8.80;99.90;;;9.50;100.00;97155.59;5085667;28;20975;-74
2022/04/25 01:15:18;;;;;;;8.53;6.53;;;8.80;99.90;;;9.51;100.00;97156.41;5085962;28;20482;-74
2022/04/25 01:17:49;;;;;;;8.87;6.63;;;8.70;99.90;;;9.53;100.00;97155.19;5089802;28;20470;-75
2022/04/25 01:20:19;;;;;;;10.10;7.40;;;8.70;99.90;;;9.45;100.00;97155.38;5089895;28;20940;-75
2022/04/25 01:27:15;;;;;;;6.63;5.80;;;8.60;99.90;;;9.43;100.00;97157.41;5091179;28;20526;-75
2022/04/25 01:28:39;;;;;;;11.57;7.00;;;8.40;99.90;;;9.50;100.00;97160.00;5091454;28;20483;-74
2022/04/25 01:31:08;;;;;;;10.10;6.80;;;8.60;99.90;;;9.48;100.00;97160.19;5091301;28;20455;-75
2022/04/25 01:33:38;;;;;;;11.77;7.00;;;8.70;99.90;;;9.51;100.00;97157.19;5090553;28;20545;-74
2022/04/25 01:36:08;;;;;;;10.60;6.80;;;8.60;99.90;;;9.56;100.00;97160.00;5094711;28;20468;-78
2022/04/25 01:38:37;;;;;;;13.40;6.70;;;8.60;99.90;;;9.53;100.00;97165.63;5089490;28;21103;-74
2022/04/25 01:41:08;;;;;;;9.10;6.80;;;8.70;99.90;;;9.46;100.00;97170.03;5095698;28;20487;-74
2022/04/25 01:43:38;;;;;;;11.13;7.80;;;8.70;99.90;;;9.39;100.00;97161.41;5093950;28;20469;-74
2022/04/25 01:46:08;;;;;;;10.60;7.93;;;8.60;99.90;;;9.40;100.00;97157.81;5089511;28;20479;-74
2022/04/25 01:48:37;;;;;;;10.07;7.57;;;8.60;99.90;;;9.42;100.00;97153.19;5093694;28;20991;-74
2022/04/25 01:51:06;;;;;;;9.37;7.20;;;8.60;99.90;;;9.38;100.00;97162.41;5093674;28;21173;-74
2022/04/25 01:53:37;;;;;;;7.93;6.50;;;8.70;99.90;;;9.33;100.00;97162.22;5086199;28;20981;-75
2022/04/25 01:56:10;;;;;;;10.40;6.77;;;8.60;99.90;;;9.36;100.00;97155.81;5090643;28;20979;-74
2022/04/25 01:58:41;;;;;;;10.13;6.93;;;8.60;99.90;;;9.36;100.00;97159.22;5093243;28;20466;-74
2022/04/25 02:01:12;;;;;;;10.80;6.60;;;8.60;99.90;;;9.33;100.00;97154.41;5089916;28;20463;-74
2022/04/25 02:03:47;;;;;;;10.40;7.17;;;8.60;99.90;;;9.28;100.00;97156.00;5089033;28;20487;-74
2022/04/25 02:06:16;;;;;;;8.70;7.00;;;8.50;99.90;;;9.22;100.00;97152.38;5093049;28;21063;-75
2022/04/25 02:08:46;;;;;;;10.10;7.13;;;8.50;99.90;;;9.23;100.00;97154.00;5093362;28;20488;-74
2022/04/25 02:11:21;;;;;;;10.20;7.00;;;8.50;99.90;;;9.29;100.00;97162.81;5091851;28;20464;-74
2022/04/25 02:13:52;;;;;;;9.23;7.03;;;8.40;99.90;;;9.32;100.00;97158.00;5094110;28;20465;-75
2022/04/25 02:16:23;;;;;;;10.60;6.63;;;8.40;99.90;;;9.27;100.00;97159.59;5093694;28;20461;-74
2022/04/25 02:18:55;;;;;;;10.17;6.80;;;8.40;99.90;;;9.20;100.00;97164.81;5090142;28;20450;-74
2022/04/25 02:21:25;;;;;;;9.20;6.83;;;8.40;99.90;;;9.15;100.00;97166.41;5090449;28;20462;-74
2022/04/25 02:23:55;;;;;;;9.20;7.47;;;8.40;99.90;;;9.16;100.00;97158.41;5093621;28;20477;-75
2022/04/25 02:26:27;;;;;;;11.07;8.17;;;8.30;99.90;;;9.16;100.00;97162.81;5092448;28;20491;-75
2022/04/25 02:28:57;;;;;;;11.07;7.20;;;8.30;99.90;;;9.09;100.00;97166.19;5091932;28;20458;-74
2022/04/25 02:31:28;;;;;;;8.83;7.30;;;8.30;99.90;;;9.08;100.00;97164.63;5094954;28;20455;-74
2022/04/25 02:33:58;;;;;;;10.40;7.30;;;8.30;99.90;;;9.09;100.00;97163.59;5094006;28;20542;-74
2022/04/25 02:36:29;;;;;;;9.90;7.13;;;8.20;99.90;;;9.03;100.00;97164.41;5090582;28;20463;-74
2022/04/25 02:38:58;;;;;;;8.43;6.93;;;8.30;99.90;;;8.99;100.00;97167.59;5089805;28;20473;-74
2022/04/25 02:41:29;;;;;;;10.17;7.17;;;8.20;99.90;;;8.91;100.00;97160.78;5092573;28;20519;-74
2022/04/25 02:43:59;;;;;;;11.77;7.20;;;8.20;99.90;;;8.94;100.00;97162.19;5093413;28;20512;-74
2022/04/25 02:46:29;;;;;;;9.43;6.07;;;8.10;99.90;;;8.95;100.00;97166.41;5093580;28;20488;-74
2022/04/25 02:49:00;;;;;;;8.40;5.60;;;8.10;99.90;;;8.90;100.00;97167.00;5090901;28;20460;-75
2022/04/25 02:51:30;;;;;;;8.60;7.00;;;8.20;99.90;;;8.86;100.00;97171.00;5090633;28;20457;-75
2022/04/25 02:54:00;;;;;;;9.83;7.60;;;8.10;99.90;;;8.86;100.00;97172.78;5087737;28;20969;-74
2022/04/25 02:56:31;;;;;;;7.60;6.80;;;8.10;99.90;;;8.86;100.00;97178.00;5092870;28;20454;-75
2022/04/25 02:59:01;;;;;;;8.20;6.60;;;8.00;99.90;;;8.85;100.00;97171.97;5091948;28;20464;-74
2022/04/25 03:01:31;;;;;;;9.80;6.30;;;8.00;99.90;;;8.81;100.00;97170.00;5091508;28;21505;-74
2022/04/25 03:04:01;;;;;;;11.00;6.93;;;8.00;99.90;;;8.76;100.00;97167.16;5092058;28;20532;-74
2022/04/25 03:06:30;;;;;;;10.77;7.87;;;8.00;99.90;;;8.71;100.00;97167.75;5090110;28;20492;-74
2022/04/25 03:09:01;;;;;;;8.93;6.00;;;8.00;99.90;;;8.73;100.00;97165.75;5094460;28;20986;-74
2022/04/25 03:11:34;;;;;;;11.30;7.50;;;7.90;99.90;;;8.71;100.00;97165.13;5095613;28;20471;-74
2022/04/25 03:14:05;;;;;;;10.67;7.50;;;7.90;99.90;;;8.64;100.00;97158.31;5095097;28;20471;-74
2022/04/25 03:16:35;;;;;;;11.93;7.40;;;7.90;99.90;;;8.62;100.00;97165.50;5094184;28;20445;-74
2022/04/25 03:19:05;;;;;;;12.63;6.70;;;7.80;99.90;;;8.61;100.00;97162.09;5095214;28;20467;-74
2022/04/25 03:21:35;;;;;;;9.90;7.60;;;7.70;99.90;;;8.63;100.00;97156.72;5098470;28;20961;-74
2022/04/25 03:24:06;;;;;;;12.70;7.83;;;7.70;99.90;;;8.60;100.00;97168.34;5095148;28;20463;-75
2022/04/25 03:26:39;;;;;;;9.93;6.80;;;7.70;99.90;;;8.53;100.00;97163.09;5089058;28;20484;-74
2022/04/25 03:29:11;;;;;;;11.03;7.07;;;7.70;99.90;;;8.45;100.00;97160.66;5091376;28;20496;-74
2022/04/25 03:31:40;;;;;;;9.80;6.17;;;7.70;99.90;;;8.37;100.00;97154.81;5088461;28;20518;-74
2022/04/25 03:34:10;;;;;;;10.00;7.00;;;7.70;99.90;;;8.30;100.00;97170.41;5083873;28;20459;-74
2022/04/25 03:36:44;;;;;;;11.23;6.93;;;7.60;99.90;;;8.19;100.00;97163.13;5088176;28;20486;-74
2022/04/25 03:39:13;;;;;;;10.27;7.67;;;7.60;99.90;;;8.15;100.00;97174.94;5089574;28;20510;-74
2022/04/25 03:41:44;;;;;;;14.60;7.90;;;7.50;99.90;;;8.14;100.00;97170.72;5092573;28;20464;-74
2022/04/25 03:44:14;;;;;;;8.70;6.73;;;7.40;99.90;;;8.10;100.00;97178.09;5094811;28;20430;-74
2022/04/25 03:46:44;;;;;;;8.67;7.13;;;7.40;99.90;;;8.05;100.00;97175.28;5089677;28;20557;-74
2022/04/25 03:49:14;;;;;;;10.73;7.97;;;7.30;99.90;;;8.09;100.00;97173.09;5089509;28;20451;-74
2022/04/25 03:51:44;;;;;;;9.37;6.97;;;7.30;99.90;;;8.11;100.00;97171.09;5091086;28;20463;-73
2022/04/25 03:57:09;;;;;;;10.70;7.97;;;7.20;99.90;;;8.05;100.00;97174.50;5089625;28;20467;-74
2022/04/25 03:57:12;;;;;;;11.57;7.60;;;7.20;99.90;;;8.03;100.00;97179.88;5091788;28;20459;-74
2022/04/25 03:59:41;;;;;;;9.77;6.80;;;7.20;99.90;;;8.04;100.00;97181.50;5085375;28;20488;-74
2022/04/25 04:02:11;;;;;;;9.13;6.67;;;7.20;99.90;;;8.01;100.00;97178.47;5088585;28;20483;-74
2022/04/25 04:04:42;;;;;;;9.60;6.70;;;7.20;99.90;;;8.02;100.00;97187.88;5090337;28;20479;-74
2022/04/25 04:07:12;;;;;;;11.20;7.20;;;7.10;99.90;;;8.01;100.00;97183.69;5088283;28;20507;-74
2022/04/25 04:09:47;;;;;;;9.97;7.43;;;7.10;99.90;;;8.00;100.00;97190.69;5093406;28;20456;-74
2022/04/25 04:12:20;;;;;;;12.17;7.10;;;7.10;99.90;;;7.94;100.00;97188.03;5090228;28;20467;-74
2022/04/25 04:14:49;;;;;;;8.67;7.23;;;7.20;99.90;;;7.95;100.00;97192.22;5092202;28;20458;-74
2022/04/25 04:17:19;;;;;;;10.17;6.63;;;7.10;99.90;;;7.91;100.00;97189.19;5094232;28;20447;-74
2022/04/25 04:19:50;;;;;;;9.73;7.27;;;7.10;99.90;;;7.92;100.00;97190.00;5087485;28;20575;-74
2022/04/25 04:22:18;;;;;;;9.70;7.00;;;7.10;99.90;;;7.89;100.00;97193.00;5086963;28;21046;-80
2022/04/25 04:24:49;;;;;;;14.10;6.83;;;7.00;99.90;;;7.87;100.00;97195.81;5090139;28;20450;-74
2022/04/25 04:27:21;;;;;;;10.13;6.73;;;7.00;99.90;;;7.88;100.00;97194.00;5086605;28;20493;-73
2022/04/25 04:29:51;;;;;;;11.93;7.70;;;6.90;99.90;;;7.86;100.00;97202.00;5089038;28;20888;-73
2022/04/25 04:32:22;;;;;;;9.50;6.93;;;7.00;99.90;;;7.85;100.00;97199.56;5086070;28;20457;-73
2022/04/25 04:34:52;;;;;;;9.93;7.87;;;7.00;99.90;;;7.82;100.00;97210.38;5092655;28;20516;-74
2022/04/25 04:37:21;;;;;;;12.40;8.43;;;6.90;99.90;;;7.82;100.00;97208.56;5094773;28;20508;-73
2022/04/25 04:39:51;;;;;;;10.87;7.90;;;6.90;99.90;;;7.80;100.00;97214.97;5092426;28;20886;-73
2022/04/25 04:42:22;;;;;;;11.07;8.23;;;6.90;99.90;;;7.73;100.00;97212.31;5093848;28;20475;-73
2022/04/25 04:44:51;;;;;;;9.17;6.20;;;6.80;99.90;;;7.70;100.00;97227.50;5092913;28;20512;-73
2022/04/25 04:47:21;;;;;;;8.97;7.10;;;6.80;99.90;;;7.65;100.00;97225.47;5094398;28;20489;-73
2022/04/25 04:49:50;;;;;;;9.47;7.00;;;6.80;99.90;;;7.63;100.00;97226.66;5091906;28;20454;-73
2022/04/25 04:52:21;;;;;;;12.23;7.80;;;6.80;99.90;;;7.62;100.00;97219.84;5094868;28;20463;-73
2022/04/25 04:54:53;;;;;;;9.87;7.80;;;6.70;99.90;;;7.64;100.00;97225.66;5093238;28;20432;-73
2022/04/25 04:57:25;;;;;;;11.40;8.13;;;6.80;99.90;;;7.68;100.00;97229.47;5091063;28;20443;-73
2022/04/25 04:59:56;;;;;;;10.27;7.50;;;6.80;99.90;;;7.71;100.00;97231.69;5093316;28;20475;-74
2022/04/25 05:02:26;;;;;;;8.60;7.30;;;6.80;99.90;;;7.73;100.00;97234.94;5091207;28;20466;-73
2022/04/25 05:04:56;;;;;;;10.00;7.37;;;6.80;99.90;;;7.73;100.00;97243.56;5084660;28;20542;-73
2022/04/25 05:07:26;;;;;;;9.73;7.60;;;6.80;99.90;;;7.75;100.00;97235.53;5087396;28;20486;-73
2022/04/25 05:09:55;;;;;;;11.73;8.03;;;6.80;99.90;;;7.77;100.00;97239.59;5086977;28;20482;-73
2022/04/25 05:12:31;;;;;;;9.57;7.37;;;6.80;99.90;;;7.79;100.00;97236.78;5089435;28;20450;-73
2022/04/25 05:15:03;;;;;;;9.93;7.17;;;6.90;99.90;;;7.81;100.00;97237.41;5085631;28;20446;-73
2022/04/25 05:17:33;;;;;;;9.60;7.30;;;6.90;99.90;;;7.83;100.00;97244.03;5082983;28;21685;-73
2022/04/25 05:20:02;;;;;;;11.90;8.00;;;6.90;99.90;;;7.83;100.00;97238.81;5085369;28;20504;-73
2022/04/25 05:22:32;;;;;;;12.20;6.97;;;6.90;99.90;;;7.90;100.00;97244.06;5076141;28;20852;-73
2022/04/25 05:25:02;;;;;;;9.67;6.80;;;7.00;99.90;;;7.87;100.00;97265.28;5083090;28;20467;-73
2022/04/25 05:27:34;;;;;;;11.07;6.90;;;7.20;99.90;;;7.78;100.00;97266.38;5085284;28;20539;-73
2022/04/25 05:30:05;;;;;;;10.83;8.30;;;7.20;99.90;;;7.82;100.00;97268.44;5088025;28;20467;-74
2022/04/25 05:32:44;;;;;;;13.60;8.50;;;7.10;99.90;;;7.83;100.00;97274.44;5086221;28;20524;-74
2022/04/25 05:35:13;;;;;;;114.67;59.33;;;7.20;99.90;;;7.79;100.00;97273.22;5090947;28;20953;-75
2022/04/25 05:37:43;;;;;;;8.63;7.47;;;7.20;99.90;;;7.75;100.00;97285.78;5088271;28;21052;-73
2022/04/25 05:40:14;;;;;;;9.80;7.70;;;7.10;99.90;;;7.78;100.00;97292.41;5084932;28;20554;-73
2022/04/25 05:42:47;;;;;;;11.00;7.60;;;7.20;99.90;;;7.84;100.00;97292.50;5086646;28;20478;-74
2022/04/25 05:45:20;;;;;;;11.50;8.60;;;7.20;99.90;;;7.83;100.00;97298.69;5088593;28;20536;-74
2022/04/25 05:47:54;;;;;;;11.53;7.50;;;7.20;99.90;;;7.81;100.00;97303.25;5089077;28;20495;-74
2022/04/25 05:53:13;;;;;;;13.43;8.80;;;7.20;99.90;;;7.92;100.00;97304.53;5090314;28;20463;-75
2022/04/25 05:55:45;;;;;;;10.80;7.73;;;7.30;99.90;;;7.95;100.00;97309.38;5087109;28;20473;-73
2022/04/25 05:58:18;;;;;;;12.90;8.20;;;7.40;99.90;;;7.98;100.00;97309.78;5088623;28;20463;-73
2022/04/25 06:00:50;;;;;;;12.27;7.93;;;7.40;99.90;;;8.04;100.00;97313.47;5088411;28;20465;-74
2022/04/25 06:03:20;;;;;;;12.50;7.73;;;7.40;99.90;;;8.10;100.00;97312.69;5084999;28;20487;-74
2022/04/25 06:05:52;;;;;;;13.67;7.27;;;7.40;99.90;;;8.11;100.00;97309.09;5087191;28;20532;-74
2022/04/25 06:08:23;;;;;;;11.10;8.33;;;7.40;99.90;;;8.17;100.00;97312.72;5088330;28;20555;-73
2022/04/25 06:10:53;;;;;;;9.40;7.50;;;7.40;99.90;;;8.24;100.00;97309.19;5091903;28;20495;-73
2022/04/25 06:13:25;;;;;;;11.93;7.93;;;7.40;99.90;;;8.29;100.00;97322.50;5089760;28;20513;-74
2022/04/25 06:15:56;;;;;;;10.17;7.90;;;7.50;99.90;;;8.34;100.00;97320.09;5093935;28;20458;-74
2022/04/25 06:18:26;;;;;;;11.57;8.07;;;7.50;99.90;;;8.36;100.00;97315.53;5095779;28;20852;-74
2022/04/25 06:20:55;;;;;;;12.60;8.30;;;7.60;99.90;;;8.42;100.00;97319.97;5089241;28;20467;-75
2022/04/25 06:23:30;;;;;;;10.40;7.90;;;7.60;99.90;;;8.48;100.00;97316.59;5095521;28;20465;-74
2022/04/25 06:26:01;;;;;;;10.70;7.37;;;7.60;99.90;;;8.53;100.00;97318.63;5087554;28;20446;-74
2022/04/25 06:28:32;;;;;;;13.67;8.57;;;7.70;99.90;;;8.52;100.00;97320.41;5088571;28;20496;-74
2022/04/25 06:31:02;;;;;;;15.70;9.10;;;7.70;99.90;;;8.54;100.00;97315.81;5092805;28;21038;-74
2022/04/25 06:33:32;;;;;;;15.13;8.40;;;7.90;99.90;;;8.53;100.00;97318.63;5091045;28;21143;-74
2022/04/25 06:36:01;;;;;;;13.80;8.73;;;7.90;99.90;;;8.54;100.00;97321.03;5089181;28;20475;-75
2022/04/25 06:38:32;;;;;;;15.20;8.70;;;8.00;99.90;;;8.58;100.00;97317.03;5089552;28;20534;-74
2022/04/25 06:41:01;;;;;;;16.63;10.17;;;8.10;99.90;;;8.62;100.00;97314.84;5092552;28;20476;-74
2022/04/25 06:43:32;;;;;;;11.60;9.20;;;8.00;99.90;;;8.70;100.00;97314.72;5094531;28;20474;-74
2022/04/25 06:46:03;;;;;;;16.03;9.20;;;8.00;99.90;;;8.78;100.00;97321.56;5091599;28;21001;-74
2022/04/25 06:48:33;;;;;;;11.60;8.33;;;8.10;99.90;;;8.86;100.00;97321.38;5095662;28;20497;-74
2022/04/25 06:51:03;;;;;;;18.90;9.97;;;8.10;99.90;;;8.95;100.00;97328.88;5096497;28;20431;-74
2022/04/25 06:53:34;;;;;;;12.80;9.53;;;8.20;99.90;;;9.03;100.00;97331.28;5094528;28;20936;-74
2022/04/25 06:56:04;;;;;;;11.50;8.50;;;8.40;99.90;;;9.14;100.00;97331.72;5093605;28;20549;-74
2022/04/25 06:58:37;;;;;;;13.40;9.10;;;8.30;99.90;;;9.22;100.00;97329.75;5094257;28;20553;-74
2022/04/25 07:01:08;;;;;;;14.67;9.20;;;8.40;99.90;;;9.30;100.00;97332.16;5091643;28;20466;-74
2022/04/25 07:03:39;;;;;;;11.77;9.17;;;8.50;99.90;;;9.39;100.00;97336.22;5089378;28;20479;-74
2022/04/25 07:06:10;;;;;;;20.23;8.57;;;8.60;99.90;;;9.43;100.00;97334.03;5094103;28;20443;-74
2022/04/25 07:08:41;;;;;;;14.10;9.50;;;8.70;99.90;;;9.48;100.00;97335.03;5090810;28;20479;-74
2022/04/25 07:11:11;;;;;;;14.17;9.40;;;8.90;99.90;;;9.55;100.00;97337.66;5095235;28;20940;-74
2022/04/25 07:13:44;;;;;;;15.10;8.50;;;9.00;99.90;;;9.61;100.00;97339.50;5091598;28;20451;-74
2022/04/25 07:16:14;;;;;;;15.07;9.53;;;9.10;99.90;;;9.63;100.00;97337.47;5094932;28;20471;-74
2022/04/25 07:18:44;;;;;;;12.10;9.10;;;9.10;99.90;;;9.69;100.00;97344.50;5089298;28;20832;-74
2022/04/25 07:29:57;;;;;;;12.70;9.07;;;9.20;99.90;;;10.06;100.00;97337.94;5086714;28;20811;-74
2022/04/25 07:32:27;;;;;;;12.43;10.00;;;9.40;99.90;;;10.13;100.00;97334.28;5088880;28;20824;-74
2022/04/25 07:34:58;;;;;;;13.57;9.47;;;9.50;99.90;;;10.17;100.00;97329.50;5090473;28;20463;-74
2022/04/25 07:37:28;;;;;;;14.60;9.17;;;9.50;99.90;;;10.26;100.00;97328.31;5090572;28;20507;-74
2022/04/25 07:40:02;;;;;;;12.93;9.60;;;9.50;99.90;;;10.34;100.00;97328.09;5083333;28;20496;-74
2022/04/25 07:42:31;;;;;;;12.03;9.97;;;9.70;99.90;;;10.41;100.00;97323.66;5086814;28;26166;-74
2022/04/25 07:45:04;;;;;;;14.40;10.20;;;9.80;99.90;;;10.47;100.00;97325.47;5088025;28;20478;-74
2022/04/25 07:47:32;;;;;;;13.20;10.03;;;9.90;99.90;;;10.53;100.00;97324.63;5088589;28;20462;-74
2022/04/25 07:50:03;;;;;;;13.17;10.73;;;10.00;99.90;;;10.59;100.00;97323.81;5087417;28;20502;-74
2022/04/25 07:52:33;;;;;;;14.37;9.83;;;10.10;99.90;;;10.60;100.00;97319.41;5091383;28;20539;-74
2022/04/25 07:55:06;;;;;;;14.87;9.40;;;10.20;99.90;;;10.68;100.00;97323.59;5089685;28;20460;-74
2022/04/25 07:57:36;;;;;;;15.00;10.70;;;10.20;99.90;;;10.77;100.00;97314.50;5086377;28;20500;-74
2022/04/25 08:00:11;;;;;;;13.50;10.20;;;10.30;99.90;;;10.91;100.00;97316.88;5088138;28;20494;-74
2022/04/25 08:02:42;;;;;;;11.97;9.97;;;10.40;99.90;;;11.03;100.00;97330.13;5088238;28;20511;-74
2022/04/25 08:05:13;;;;;;;16.00;10.20;;;10.50;99.90;;;11.11;100.00;97324.66;5089115;28;20538;-74
2022/04/25 08:07:44;;;;;;;14.93;10.13;;;10.60;99.90;;;11.21;100.00;97326.84;5092403;28;21057;-73
2022/04/25 08:10:14;;;;;;;191.23;98.50;;;10.60;99.90;;;11.29;100.00;97330.00;5090979;28;20458;-74
2022/04/25 08:18:19;;;;;;;17.57;10.03;;;10.80;99.90;;;11.40;100.00;97342.44;5088353;28;20482;-74
2022/04/25 08:20:50;;;;;;;15.30;10.40;;;10.80;99.90;;;11.43;100.00;97347.25;5090522;28;20490;-74
2022/04/25 08:23:19;;;;;;;14.17;10.27;;;10.90;99.90;;;11.46;100.00;97361.72;5087861;28;20516;-75
2022/04/25 08:25:48;;;;;;;14.93;8.53;;;10.90;99.90;;;11.45;100.00;97371.41;5088470;28;20492;-74
2022/04/25 08:28:19;;;;;;;12.77;9.73;;;11.00;99.90;;;11.43;100.00;97376.06;5089032;28;20487;-74
2022/04/25 08:30:52;;;;;;;12.57;9.17;;;10.90;99.90;;;11.44;100.00;97387.34;5085261;28;20471;-74
2022/04/25 08:33:23;;;;;;;12.70;9.30;;;10.80;99.90;;;11.41;100.00;97391.19;5089721;28;20460;-74
2022/04/25 08:35:52;;;;;;;115.03;65.53;;;10.80;99.90;;;11.36;100.00;97398.84;5084619;28;20517;-80
2022/04/25 08:38:23;;;;;;;8.83;6.70;;;10.70;99.90;;;11.24;100.00;97413.59;5090014;28;20469;-74
2022/04/25 08:40:54;;;;;;;14.87;7.57;;;10.70;99.90;;;11.22;100.00;97412.16;5090334;28;20455;-74
2022/04/25 08:43:25;;;;;;;28.23;7.80;;;10.60;99.90;;;11.19;100.00;97412.59;5092111;28;20470;-74
2022/04/25 08:45:58;;;;;;;11.30;7.60;;;10.70;99.90;;;11.14;100.00;97404.56;5090951;28;20460;-73
2022/04/25 08:48:28;;;;;;;17.40;8.50;;;10.60;99.90;;;11.10;100.00;97397.13;5089509;28;20482;-80
2022/04/25 08:51:00;;;;;;;16.53;9.07;;;10.60;99.90;;;11.09;100.00;97394.72;5089032;28;20484;-74
2022/04/25 08:53:30;;;;;;;12.37;8.57;;;10.50;99.90;;;11.12;100.00;97402.16;5094359;28;20455;-74
2022/04/25 08:56:05;;;;;;;12.50;8.10;;;10.40;99.90;;;11.13;100.00;97413.41;5096329;28;20450;-74
2022/04/25 08:58:40;;;;;;;10.60;7.80;;;10.30;99.90;;;11.10;100.00;97404.19;5093270;28;20932;-74
2022/04/25 09:01:12;;;;;;;9.43;7.57;;;10.30;99.90;;;11.13;100.00;97403.75;5089388;28;20524;-74
2022/04/25 09:03:42;;;;;;;7.80;6.57;;;10.30;99.90;;;11.08;100.00;97398.31;5089924;28;20535;-74
2022/04/25 09:06:11;;;;;;;7.17;6.03;;;10.40;99.90;;;11.10;100.00;97402.38;5090738;28;21020;-74
2022/04/25 09:08:42;;;;;;;10.47;5.60;;;10.40;99.90;;;11.04;100.00;97405.78;5091572;28;20482;-74
2022/04/25 09:13:59;;;;;;;7.23;5.37;;;10.50;99.90;;;11.07;100.00;97401.97;5092477;28;20452;-74
2022/04/25 09:16:30;;;;;;;6.83;4.90;;;10.40;99.90;;;10.98;100.00;97401.38;5091780;28;20454;-74
2022/04/25 09:19:00;;;;;;;6.37;4.87;;;10.50;99.90;;;11.03;100.00;97404.19;5090676;28;20687;-74
2022/04/25 09:21:30;;;;;;;7.27;6.10;;;10.50;99.90;;;11.09;100.00;97413.03;5089402;28;20458;-74
2022/04/25 09:24:00;;;;;;;8.47;6.67;;;10.40;99.90;;;11.14;100.00;97404.56;5092599;28;20455;-74
2022/04/25 09:26:31;;;;;;;11.43;7.10;;;10.50;99.90;;;11.14;100.00;97410.59;5091911;28;20520;-74
2022/04/25 09:29:01;;;;;;;10.43;7.03;;;10.50;99.90;;;11.23;100.00;97414.59;5086811;28;20479;-74
2022/04/25 09:31:33;;;;;;;9.13;7.50;;;10.50;99.90;;;11.27;100.00;97410.56;5089788;28;20474;-74
2022/04/25 09:34:59;;;;;;;9.10;6.47;;;10.60;99.90;;;11.34;100.00;97415.78;5094171;28;20461;-74
2022/04/25 09:37:06;;;;;;;11.33;7.53;;;10.70;99.90;;;11.42;100.00;97407.69;5091918;28;20489;-74
2022/04/25 09:39:36;;;;;;;8.50;6.83;;;10.70;99.90;;;11.46;100.00;97403.63;5092233;28;20794;-74
2022/04/25 09:42:05;;;;;;;9.70;5.77;;;10.80;99.90;;;11.48;100.00;97409.47;5092569;28;20983;-74
2022/04/25 09:44:58;;;;;;;8.60;6.90;;;10.80;99.90;;;11.52;100.00;97408.81;5094800;28;20972;-74
2022/04/25 09:47:32;;;;;;;10.13;6.70;;;10.70;99.90;;;11.53;100.00;97405.19;5094638;28;20435;-74
2022/04/25 09:50:08;;;;;;;8.97;6.57;;;10.80;99.90;;;11.54;100.00;97396.34;5094598;28;20473;-74
2022/04/25 09:52:58;;;;;;;11.47;6.40;;;10.90;99.90;;;11.57;100.00;97410.81;5096652;28;20568;-74
2022/04/25 09:55:30;;;;;;;8.93;5.33;;;10.90;99.90;;;11.56;100.00;97410.03;5097647;28;20439;-74
2022/04/25 09:57:59;;;;;;;8.20;5.67;;;10.90;99.90;;;11.55;100.00;97402.38;5096158;28;20995;-74
2022/04/25 10:00:54;;;;;;;6.13;5.27;;;10.80;99.90;;;11.60;100.00;97413.84;5095686;28;20477;-74
2022/04/25 10:03:35;;;;;;;7.57;5.60;;;10.80;99.90;;;11.59;100.00;97411.44;5092913;28;20495;-74
2022/04/25 10:06:06;;;;;;;6.40;4.70;;;10.90;99.90;;;11.56;100.00;97415.25;5094836;28;20520;-74
2022/04/25 10:08:38;;;;;;;7.47;5.60;;;10.90;99.90;;;11.61;100.00;97407.59;5096493;28;20455;-74
2022/04/25 10:11:08;;;;;;;8.47;5.40;;;10.80;99.90;;;11.65;100.00;97402.75;5095415;28;20462;-74
2022/04/25 10:13:38;;;;;;;9.43;5.90;;;10.90;99.90;;;11.70;100.00;97407.34;5096098;28;20459;-74
2022/04/25 10:16:07;;;;;;;9.73;5.80;;;10.90;99.90;;;11.76;100.00;97404.72;5098027;28;20444;-74
2022/04/25 10:18:39;;;;;;;6.30;5.70;;;10.90;99.90;;;11.81;100.00;97401.47;5098160;28;20501;-75
2022/04/25 10:21:11;;;;;;;6.90;5.53;;;11.00;99.90;;;11.89;100.00;97398.59;5092133;28;20443;-74
2022/04/25 10:23:42;;;;;;;8.80;6.47;;;11.20;99.90;;;11.91;100.00;97407.84;5093811;28;20443;-74
2022/04/25 10:26:11;;;;;;;7.30;5.90;;;11.20;99.90;;;11.94;100.00;97411.88;5097404;28;20454;-75
2022/04/25 10:28:48;;;;;;;6.87;5.33;;;11.30;99.90;;;11.98;100.00;97402.56;5094973;28;20479;-74
2022/04/25 10:31:26;;;;;;;5.90;4.70;;;11.30;99.90;;;12.06;100.00;97404.94;5097536;28;20513;-74
2022/04/25 10:34:02;;;;;;;6.27;5.53;;;11.30;99.90;;;12.16;100.00;97402.66;5097220;28;20446;-74
2022/04/25 10:37:28;;;;;;;7.00;4.90;;;11.40;99.90;;;12.26;100.00;97402.97;5093299;28;20454;-73
2022/04/25 10:40:00;;;;;;;8.03;4.97;;;11.50;99.90;;;12.31;100.00;97405.78;5092422;28;20470;-74
2022/04/25 10:45:17;;;;;;;6.73;5.43;;;11.80;99.90;;;12.45;100.00;97398.59;5096216;28;20435;-74
2022/04/25 10:47:59;;;;;;;7.27;5.47;;;11.80;99.90;;;12.49;100.00;97410.28;5092383;28;20464;-74
2022/04/25 10:50:31;;;;;;;6.53;5.57;;;11.90;99.90;;;12.52;100.00;97401.97;5093018;28;20479;-74
2022/04/25 10:53:02;;;;;;;11.13;4.90;;;11.80;99.90;;;12.51;100.00;97411.66;5092742;28;20459;-74
2022/04/25 10:55:45;;;;;;;7.33;5.40;;;12.00;99.90;;;12.53;100.00;97404.38;5088599;28;20475;-74
2022/04/25 10:58:32;;;;;;;6.67;5.13;;;12.00;99.90;;;12.56;100.00;97406.56;5088711;28;20470;-74
2022/04/25 11:01:03;;;;;;;6.90;4.40;;;12.10;99.90;;;12.58;100.00;97407.16;5092197;28;20506;-75
2022/04/25 11:03:33;;;;;;;11.60;7.03;;;12.10;99.90;;;12.63;100.00;97404.69;5087348;28;20586;-82